Portada
METAR-TAF:

METAR-TAF

Aeroports :

Nouméa, Nova Caledònia

latitud: 22-15-30S, longitud: 166-28-22E, altitud: 3 m

METAR: manca

Hora: 13:13 (02:13 UTC)

Pronòstic

L'informe es va fer fa 6 hores i 39 minuts, a les 19:34 UTC
Pronòstic vàlid del 26 a les 19 UTC al 27 a les 18 UTC
Vent 10 kt del Est
Visibilitat 10 km o més
Núvols disperses a una alçada de 2500 ft
Núvols disperses a una alçada de 5000 ft
Temporalment
l' 27 a les 00 UTC al 27 a les 06 UTC
Cel ennuvolat a una alçada de 1400 ft
Escasses núvols a una alçada de 3000 ft, Cumulus congestus.
xàfecs de pluja

TAF: NWWM 261934Z 2619/2718 10010KT 9999 SCT025 SCT050 TEMPO 2700/2706 SHRA BKN014 FEW030TCU

Observacions i pronòstics meteorològics de més de 4000 aeroports (METAR i TAF).

Les estacions disponibles són els punts grocs i vermells al mapa.

Posi el ratolí al punt desitjat per veure el nom de l'estació.

Feu clic per veure les observacions i els pronòstics meteorològics.

Per canviar el mapa: feu clic els botons verds amb una creu de color negre per apropar; al botó verd amb un guió per allunyar la imatge; o en les fletxes verdes per a mapes adjacents.


METAR-TAF: